Time;durP1;ratioP1;P1;durP2;ratioP2;P2;SDS_P1;SDS_P2;PMS_P1;PMS_P2;Temp;Humidity;BMP_temperature;BMP_pressure;BME280_temperature;BME280_humidity;BME280_pressure;Samples;Min_cycle;Max_cycle;Signal;HPM_P1;HPM_P2
2022/08/10 00:02:29;;;;;;;4.35;2.95;;;;;;;17.86;71.68;102595.75;5023940;28;20044;-70
2022/08/10 00:04:54;;;;;;;5.90;3.15;;;;;;;17.79;71.92;102595.00;5023512;28;20659;-70
2022/08/10 00:07:19;;;;;;;5.88;2.90;;;;;;;17.78;71.64;102586.88;5022924;28;20085;-70
2022/08/10 00:09:44;;;;;;;6.35;3.15;;;;;;;17.69;72.08;102594.69;5043528;28;20407;-69
2022/08/10 00:12:10;;;;;;;5.72;3.17;;;;;;;17.72;71.89;102593.34;5043087;28;20032;-70
2022/08/10 00:14:35;;;;;;;5.68;3.20;;;;;;;17.72;71.49;102585.03;5043583;28;20041;-69
2022/08/10 00:17:00;;;;;;;8.73;3.45;;;;;;;17.70;71.89;102587.19;5043019;28;20036;-69
2022/08/10 00:19:25;;;;;;;5.07;3.38;;;;;;;17.64;71.90;102578.72;5043788;28;20449;-70
2022/08/10 00:21:51;;;;;;;5.45;3.22;;;;;;;17.56;72.43;102584.59;5042960;28;20028;-70
2022/08/10 00:24:16;;;;;;;5.07;3.03;;;;;;;17.58;71.97;102576.03;5025288;28;20036;-70
2022/08/10 00:26:41;;;;;;;6.25;3.60;;;;;;;17.52;72.64;102582.53;5022946;28;20026;-70
2022/08/10 00:29:07;;;;;;;5.47;3.10;;;;;;;17.48;72.54;102578.50;5023254;28;20541;-70
2022/08/10 00:31:32;;;;;;;6.82;3.42;;;;;;;17.51;72.34;102575.28;5005055;28;20113;-70
2022/08/10 00:33:57;;;;;;;7.25;3.72;;;;;;;17.42;72.90;102577.53;5022688;28;20033;-70
2022/08/10 00:36:22;;;;;;;4.60;3.13;;;;;;;17.49;72.36;102569.13;5022924;28;20025;-70
2022/08/10 00:38:47;;;;;;;5.90;3.50;;;;;;;17.42;73.34;102571.97;5023402;28;20083;-70
2022/08/10 00:41:13;;;;;;;5.30;3.73;;;;;;;17.40;72.93;102573.31;5021501;28;20602;-69
2022/08/10 00:43:38;;;;;;;6.65;3.78;;;;;;;17.36;73.34;102573.75;5023638;28;20300;-70
2022/08/10 00:46:04;;;;;;;7.47;3.40;;;;;;;17.33;73.50;102563.09;5005277;28;20510;-70
2022/08/10 00:48:30;;;;;;;6.25;3.58;;;;;;;17.25;73.79;102563.44;5022308;28;20029;-70
2022/08/10 00:50:57;;;;;;;6.53;3.67;;;;;;;17.22;73.90;102568.59;5022386;28;20516;-70
2022/08/10 00:53:22;;;;;;;7.57;4.10;;;;;;;17.22;74.00;102563.06;5022522;28;20480;-70
2022/08/10 00:55:48;;;;;;;6.18;3.42;;;;;;;17.25;73.98;102571.78;5022721;28;20036;-70
2022/08/10 00:58:14;;;;;;;9.85;3.45;;;;;;;17.15;74.32;102571.47;5025895;28;20623;-70
2022/08/10 01:00:41;;;;;;;6.13;3.90;;;;;;;17.17;74.02;102560.97;5022759;28;20125;-69
2022/08/10 01:03:06;;;;;;;8.07;4.18;;;;;;;17.14;74.34;102563.38;5022599;28;20454;-70
2022/08/10 01:05:35;;;;;;;8.10;4.40;;;;;;;17.00;75.11;102562.69;5022207;28;20113;-69
2022/08/10 01:08:14;;;;;;;10.13;4.00;;;;;;;17.00;74.80;102560.75;5021281;28;20396;-70
2022/08/10 01:10:55;;;;;;;6.60;4.30;;;;;;;17.03;74.99;102562.22;5022138;28;20040;-71
2022/08/10 01:13:30;;;;;;;9.73;4.22;;;;;;;17.08;74.39;102560.47;5022712;28;20065;-65
2022/08/10 01:16:01;;;;;;;6.90;4.00;;;;;;;17.00;74.94;102565.47;5021573;28;20037;-70
2022/08/10 01:18:47;;;;;;;6.85;4.15;;;;;;;16.97;75.01;102564.00;5023265;28;20092;-70
2022/08/10 01:21:34;;;;;;;8.40;4.18;;;;;;;16.93;75.31;102560.00;5022003;28;20109;-69
2022/08/10 01:24:25;;;;;;;7.80;4.37;;;;;;;16.95;75.37;102559.78;5022249;28;20040;-70
2022/08/10 01:27:12;;;;;;;7.57;4.55;;;;;;;16.91;75.31;102553.81;5022490;28;20087;-67
2022/08/10 01:30:00;;;;;;;11.07;4.53;;;;;;;16.95;74.91;102557.84;5022781;28;20037;-69
2022/08/10 01:32:32;;;;;;;9.73;4.97;;;;;;;16.89;75.94;102555.16;5039532;28;20051;-70
2022/08/10 01:35:11;;;;;;;8.95;5.63;;;;;;;16.85;75.89;102554.75;5042776;28;20100;-70
2022/08/10 01:37:44;;;;;;;7.40;4.85;;;;;;;16.83;75.67;102555.00;5042259;28;20021;-70
2022/08/10 01:40:12;;;;;;;9.88;5.47;;;;;;;16.80;75.94;102555.44;5042125;28;20028;-70
2022/08/10 01:42:41;;;;;;;10.32;5.82;;;;;;;16.74;76.25;102548.03;5042631;28;20028;-70
2022/08/10 01:45:09;;;;;;;9.27;5.50;;;;;;;16.65;76.72;102551.31;5024436;28;20032;-70
2022/08/10 01:50:34;;;;;;;10.15;6.00;;;;;;;16.54;77.36;102561.25;5041233;28;20110;-70
2022/08/10 01:53:05;;;;;;;10.32;5.88;;;;;;;16.51;77.47;102554.22;5041417;28;20025;-70
2022/08/10 01:55:32;;;;;;;9.60;6.78;;;;;;;16.55;77.12;102554.63;5042297;28;20048;-70
2022/08/10 01:58:02;;;;;;;10.30;6.15;;;;;;;16.51;77.58;102557.00;5042057;28;20021;-70
2022/08/10 02:00:29;;;;;;;10.70;6.38;;;;;;;16.47;77.50;102557.69;5042112;28;20056;-70
2022/08/10 02:02:59;;;;;;;11.82;7.07;;;;;;;16.47;77.83;102560.44;5042523;28;20029;-69
2022/08/10 02:05:26;;;;;;;11.50;6.50;;;;;;;16.39;78.38;102560.75;5042342;28;20095;-70
2022/08/10 02:07:54;;;;;;;9.48;6.80;;;;;;;16.49;77.85;102556.38;5024532;28;20442;-70
2022/08/10 02:10:22;;;;;;;11.05;6.60;;;;;;;16.38;78.05;102554.38;5022496;28;20028;-70
2022/08/10 02:12:48;;;;;;;10.85;7.20;;;;;;;16.36;78.34;102556.50;5022775;28;20042;-70
2022/08/10 02:15:18;;;;;;;10.65;7.47;;;;;;;16.26;79.06;102551.47;5022506;28;20026;-69
2022/08/10 02:17:52;;;;;;;12.80;7.07;;;;;;;16.33;78.66;102554.19;5022476;28;20472;-70
2022/08/10 02:20:20;;;;;;;12.32;7.75;;;;;;;16.30;78.92;102546.31;5023835;28;20029;-70
2022/08/10 02:22:51;;;;;;;11.68;7.07;;;;;;;16.20;79.29;102546.84;5031014;28;20029;-69
2022/08/10 02:25:20;;;;;;;11.93;7.53;;;;;;;16.14;79.55;102547.75;5026404;28;20021;-70
2022/08/10 02:27:46;;;;;;;;;;;;;;;16.34;77.68;102545.66;5027480;28;20362;-70
2022/08/10 02:30:11;;;;;;;11.52;7.85;;;;;;;16.29;78.72;102553.81;5025885;28;19925;-71
2022/08/10 02:32:37;;;;;;;12.90;7.60;;;;;;;16.28;79.03;102551.25;5025999;28;20025;-71
2022/08/10 02:35:06;;;;;;;11.75;7.78;;;;;;;16.18;79.74;102549.00;5026459;28;20022;-70
2022/08/10 02:37:36;;;;;;;12.70;7.68;;;;;;;16.18;79.55;102543.47;5031549;28;20116;-70
2022/08/10 02:40:01;;;;;;;14.00;7.22;;;;;;;16.12;79.78;102549.91;5043987;28;20082;-70
2022/08/10 02:42:32;;;;;;;11.75;7.75;;;;;;;16.14;79.88;102558.00;5045786;28;20527;-70
2022/08/10 02:45:06;;;;;;;11.88;7.95;;;;;;;16.04;80.08;102553.81;5045688;28;20033;-70
2022/08/10 02:47:39;;;;;;;13.40;8.50;;;;;;;16.08;80.18;102549.50;5045613;28;20384;-70
2022/08/10 02:50:25;;;;;;;11.77;7.95;;;;;;;16.08;79.87;102543.97;5045527;28;20032;-68
2022/08/10 02:53:04;;;;;;;12.10;7.97;;;;;;;16.02;80.32;102546.81;5044816;28;20037;-70
2022/08/10 02:55:38;;;;;;;14.43;7.88;;;;;;;16.06;80.20;102540.56;5044638;28;20031;-70
2022/08/10 02:58:10;;;;;;;13.48;8.07;;;;;;;15.95;81.05;102540.44;5045328;28;20029;-70
2022/08/10 03:00:43;;;;;;;12.90;8.23;;;;;;;15.86;80.88;102533.47;5045162;28;20037;-69
2022/08/10 03:03:19;;;;;;;13.25;8.20;;;;;;;15.80;81.76;102530.53;5044776;28;20682;-70
2022/08/10 03:05:52;;;;;;;12.60;8.60;;;;;;;15.85;81.29;102529.84;5045432;28;20060;-71
2022/08/10 03:08:21;;;;;;;14.35;8.80;;;;;;;15.77;81.90;102531.00;5045276;28;20036;-70
2022/08/10 03:10:49;;;;;;;16.00;9.10;;;;;;;15.79;81.82;102528.84;5045762;28;20020;-70
2022/08/10 03:13:16;;;;;;;14.10;8.57;;;;;;;15.74;81.88;102525.03;5044278;28;20090;-69
2022/08/10 03:15:44;;;;;;;13.98;8.68;;;;;;;15.73;82.28;102528.91;5044583;28;20033;-71
2022/08/10 03:18:11;;;;;;;13.05;9.25;;;;;;;15.68;82.38;102529.56;5045019;28;20496;-70
2022/08/10 03:20:40;;;;;;;14.43;8.52;;;;;;;15.74;82.04;102525.03;5045036;28;20017;-70
2022/08/10 03:23:12;;;;;;;14.18;9.15;;;;;;;15.75;82.13;102521.19;5043953;28;20025;-69
2022/08/10 03:25:38;;;;;;;12.63;9.00;;;;;;;15.68;82.39;102528.72;5045201;28;20056;-70
2022/08/10 03:28:05;;;;;;;11.75;8.52;;;;;;;15.66;82.38;102523.41;5044796;28;20064;-70
2022/08/10 03:30:30;;;;;;;14.68;8.80;;;;;;;15.67;82.81;102524.25;5033261;28;20029;-70
2022/08/10 03:32:57;;;;;;;13.68;9.02;;;;;;;15.62;83.14;102521.28;5024248;28;20057;-70
2022/08/10 03:35:23;;;;;;;14.30;8.73;;;;;;;15.58;83.36;102518.09;5025052;28;20025;-70
2022/08/10 03:37:49;;;;;;;14.85;9.38;;;;;;;15.54;83.46;102520.47;5024230;28;20057;-70
2022/08/10 03:40:14;;;;;;;14.55;8.98;;;;;;;15.52;83.65;102522.63;5024703;28;20770;-71
2022/08/10 03:42:41;;;;;;;14.27;9.07;;;;;;;15.53;83.39;102520.69;5025256;28;20037;-70
2022/08/10 03:45:08;;;;;;;15.07;9.13;;;;;;;15.51;83.93;102526.47;5024256;28;20045;-69
2022/08/10 03:47:36;;;;;;;15.10;8.95;;;;;;;15.48;83.85;102526.91;5024800;28;20026;-70
2022/08/10 03:50:03;;;;;;;16.88;9.10;;;;;;;15.50;83.96;102524.75;5023976;28;20056;-71
2022/08/10 03:52:28;;;;;;;14.95;9.20;;;;;;;15.46;84.38;102520.75;5023273;28;20501;-71
2022/08/10 03:54:54;;;;;;;14.65;8.82;;;;;;;15.47;84.09;102530.75;5024573;28;20022;-71
2022/08/10 03:57:20;;;;;;;12.85;8.85;;;;;;;15.38;84.47;102526.53;5024856;28;20030;-70
2022/08/10 03:59:46;;;;;;;14.50;9.07;;;;;;;15.40;84.58;102523.53;5024814;28;20021;-69
2022/08/10 04:02:12;;;;;;;14.00;8.30;;;;;;;15.46;84.04;102526.28;5024510;28;20028;-70
2022/08/10 04:04:38;;;;;;;13.55;8.90;;;;;;;15.37;84.96;102530.38;5029478;28;20121;-70
2022/08/10 04:07:04;;;;;;;15.80;9.32;;;;;;;15.32;85.11;102525.50;5042654;28;20345;-70
2022/08/10 04:09:32;;;;;;;14.45;9.05;;;;;;;15.31;85.29;102531.25;5043965;28;20029;-70
2022/08/10 04:11:57;;;;;;;16.48;9.68;;;;;;;15.29;85.48;102530.63;5044417;28;20085;-70
2022/08/10 04:14:22;;;;;;;13.88;9.73;;;;;;;15.24;85.52;102520.22;5043797;28;20511;-71
2022/08/10 04:16:48;;;;;;;16.02;9.70;;;;;;;15.22;85.73;102527.91;5044054;28;20040;-70
2022/08/10 04:19:16;;;;;;;14.25;9.50;;;;;;;15.21;86.14;102530.91;5044304;28;20029;-70
2022/08/10 04:21:44;;;;;;;17.08;9.93;;;;;;;15.22;85.98;102527.06;5041275;28;20537;-69
2022/08/10 04:24:16;;;;;;;14.35;9.35;;;;;;;15.23;85.90;102528.75;5043231;28;20021;-70
2022/08/10 04:26:42;;;;;;;13.95;9.02;;;;;;;15.21;85.94;102528.13;5043942;28;20112;-70
2022/08/10 04:29:08;;;;;;;14.88;9.27;;;;;;;15.15;86.35;102531.75;5043678;28;20037;-70
2022/08/10 04:31:34;;;;;;;15.90;9.80;;;;;;;15.14;86.56;102536.44;5043675;28;20194;-70
2022/08/10 04:34:01;;;;;;;16.40;8.85;;;;;;;15.14;86.37;102530.91;5043584;28;20502;-70
2022/08/10 04:36:27;;;;;;;17.20;9.05;;;;;;;15.12;86.71;102533.06;5042191;28;20061;-71
2022/08/10 04:38:54;;;;;;;14.65;9.13;;;;;;;15.05;86.67;102529.44;5040776;28;20067;-70
2022/08/10 04:41:20;;;;;;;13.50;8.63;;;;;;;15.11;86.76;102536.06;5044175;28;20079;-70
2022/08/10 04:43:46;;;;;;;17.13;9.20;;;;;;;15.04;87.10;102534.13;5042964;28;20025;-70
2022/08/10 04:46:11;;;;;;;14.93;9.93;;;;;;;15.07;86.73;102538.41;5042680;28;20017;-70
2022/08/10 04:48:36;;;;;;;20.83;9.98;;;;;;;15.10;87.25;102528.78;5043908;28;20031;-69
2022/08/10 04:51:02;;;;;;;14.20;9.20;;;;;;;15.11;86.98;102527.75;5042772;28;20033;-70
2022/08/10 04:53:27;;;;;;;14.95;9.10;;;;;;;15.12;86.77;102530.28;5042484;28;20384;-70
2022/08/10 04:55:53;;;;;;;15.95;8.73;;;;;;;15.09;87.23;102529.88;5039116;28;20082;-70
2022/08/10 04:58:18;;;;;;;14.27;9.20;;;;;;;15.10;87.06;102529.63;5024286;28;20487;-70
2022/08/10 05:00:44;;;;;;;14.80;9.65;;;;;;;15.13;87.04;102522.84;5023225;28;20468;-70
2022/08/10 05:03:09;;;;;;;15.70;9.90;;;;;;;15.16;87.12;102522.41;5022970;28;20029;-70
2022/08/10 05:05:34;;;;;;;15.02;9.57;;;;;;;15.18;87.14;102525.78;5023071;28;20028;-70
2022/08/10 05:07:59;;;;;;;13.93;9.35;;;;;;;15.14;87.33;102519.00;5028048;28;20040;-70
2022/08/10 05:10:25;;;;;;;14.90;10.23;;;;;;;15.14;87.07;102524.53;5042999;28;20036;-70
2022/08/10 05:12:50;;;;;;;16.30;10.13;;;;;;;15.20;87.02;102524.47;5042086;28;20399;-67
2022/08/10 05:15:21;;;;;;;17.77;9.60;;;;;;;15.21;87.08;102528.13;5043107;28;20029;-70
2022/08/10 05:17:46;;;;;;;16.02;9.38;;;;;;;15.22;87.09;102530.66;5042815;28;20017;-70
2022/08/10 05:20:12;;;;;;;16.73;9.23;;;;;;;15.20;87.11;102530.00;5042263;28;20519;-70
2022/08/10 05:22:41;;;;;;;15.68;9.18;;;;;;;15.22;87.30;102532.59;5042451;28;20029;-71
2022/08/10 05:25:12;;;;;;;15.45;9.60;;;;;;;15.31;87.27;102537.66;5041985;28;20029;-70
2022/08/10 05:27:40;;;;;;;15.75;9.63;;;;;;;15.38;87.37;102531.22;5043043;28;20387;-70
2022/08/10 05:30:06;;;;;;;16.10;9.75;;;;;;;15.42;86.91;102538.88;5024386;28;20021;-69
2022/08/10 05:32:33;;;;;;;15.70;9.57;;;;;;;15.46;87.24;102536.47;5028503;28;20112;-70
2022/08/10 05:34:58;;;;;;;15.48;9.88;;;;;;;15.53;87.01;102538.16;5022672;28;20029;-70
2022/08/10 05:37:24;;;;;;;16.20;9.80;;;;;;;15.57;86.76;102547.72;5021770;28;20037;-70
2022/08/10 05:39:50;;;;;;;17.92;10.73;;;;;;;15.62;86.47;102543.44;5022778;28;20106;-69
2022/08/10 05:42:16;;;;;;;15.82;10.38;;;;;;;15.66;86.04;102539.16;5023563;28;20033;-70
2022/08/10 05:44:43;;;;;;;15.27;9.88;;;;;;;15.75;86.14;102540.59;5023142;28;20022;-70
2022/08/10 05:47:08;;;;;;;15.55;9.77;;;;;;;15.70;86.75;102548.72;5021818;28;20036;-70
2022/08/10 05:49:33;;;;;;;16.67;10.85;;;;;;;15.73;87.19;102546.38;5022608;28;20135;-70
2022/08/10 05:51:58;;;;;;;19.25;11.07;;;;;;;15.79;86.46;102533.53;5021604;28;20379;-70
2022/08/10 05:54:25;;;;;;;19.70;11.32;;;;;;;15.85;86.40;102538.16;5022432;28;20044;-70
2022/08/10 05:56:51;;;;;;;17.05;11.10;;;;;;;15.89;86.24;102535.81;5022533;28;20096;-70
2022/08/10 05:59:16;;;;;;;19.55;10.82;;;;;;;15.98;85.77;102543.63;5042977;28;20035;-70
2022/08/10 06:01:45;;;;;;;16.92;10.55;;;;;;;16.01;85.97;102534.00;5042549;28;20063;-70
2022/08/10 06:04:18;;;;;;;17.73;10.38;;;;;;;16.06;85.95;102542.47;5041805;28;20021;-70
2022/08/10 06:06:46;;;;;;;17.85;11.52;;;;;;;16.12;85.36;102549.03;5032052;28;20037;-70
2022/08/10 06:09:14;;;;;;;17.98;11.43;;;;;;;16.16;85.54;102551.13;5021917;28;20038;-70
2022/08/10 06:11:41;;;;;;;17.67;11.25;;;;;;;16.22;85.21;102541.94;5022559;28;20098;-70
2022/08/10 06:16:53;;;;;;;22.30;11.52;;;;;;;16.32;85.70;102542.25;5022436;28;20546;-70
2022/08/10 06:19:18;;;;;;;19.40;13.25;;;;;;;16.38;85.25;102534.13;5022971;28;20110;-70
2022/08/10 06:21:44;;;;;;;18.92;11.77;;;;;;;16.49;84.50;102536.97;5021168;28;20476;-70
2022/08/10 06:24:11;;;;;;;19.05;12.00;;;;;;;16.57;84.59;102538.59;5021815;28;20348;-70
2022/08/10 06:26:36;;;;;;;19.98;12.07;;;;;;;16.60;85.25;102538.13;5022448;28;20025;-70
2022/08/10 06:29:09;;;;;;;18.50;12.40;;;;;;;16.70;84.21;102537.59;5022004;28;20036;-70
2022/08/10 06:31:39;;;;;;;18.50;11.80;;;;;;;16.88;83.19;102537.66;5021689;28;20025;-70
2022/08/10 06:34:07;;;;;;;20.77;11.80;;;;;;;16.95;83.57;102543.97;5021813;28;20103;-70
2022/08/10 06:36:34;;;;;;;19.98;11.93;;;;;;;17.05;82.49;102538.72;5021031;28;20018;-70
2022/08/10 06:38:59;;;;;;;21.55;12.27;;;;;;;17.12;82.71;102539.47;5024329;28;20503;-70
2022/08/10 06:41:29;;;;;;;18.73;12.10;;;;;;;17.19;82.13;102538.56;5021943;28;20037;-70
2022/08/10 06:44:08;;;;;;;21.15;13.13;;;;;;;17.27;82.00;102525.16;5021912;28;20477;-70
2022/08/10 06:46:36;;;;;;;19.90;11.63;;;;;;;17.37;81.64;102541.28;5022806;28;20108;-70
2022/08/10 06:49:04;;;;;;;18.85;12.07;;;;;;;17.44;80.88;102530.09;5041585;28;20029;-69
2022/08/10 06:51:33;;;;;;;19.75;11.40;;;;;;;17.62;79.82;102538.34;5040528;28;20025;-70
2022/08/10 06:54:01;;;;;;;20.63;12.50;;;;;;;17.68;79.30;102542.94;5041910;28;20025;-69
2022/08/10 06:56:30;;;;;;;;;;;;;;;17.90;78.00;102540.53;5039041;28;20431;-70
2022/08/10 06:59:14;;;;;;;19.45;12.02;;;;;;;18.15;77.80;102541.16;5041152;28;19913;-71
2022/08/10 07:01:43;;;;;;;22.00;12.18;;;;;;;18.24;77.35;102540.78;5041806;28;20029;-70
2022/08/10 07:04:14;;;;;;;20.77;12.13;;;;;;;18.31;76.73;102541.53;5041134;28;20021;-69
2022/08/10 07:06:43;;;;;;;20.55;11.90;;;;;;;18.35;77.98;102539.97;5041237;28;20734;-70
2022/08/10 07:09:10;;;;;;;22.38;12.30;;;;;;;18.43;76.50;102542.38;5045300;28;20029;-70
2022/08/10 07:11:37;;;;;;;18.03;12.43;;;;;;;18.55;74.83;102548.81;5042802;28;20438;-69
2022/08/10 07:14:04;;;;;;;23.65;12.45;;;;;;;18.57;75.86;102551.34;5024806;28;20065;-70
2022/08/10 07:16:30;;;;;;;19.20;12.32;;;;;;;18.62;75.37;102557.84;5025276;28;20028;-70
2022/08/10 07:18:59;;;;;;;21.75;12.77;;;;;;;18.79;72.60;102549.63;5024698;28;20033;-70
2022/08/10 07:21:26;;;;;;;23.13;12.68;;;;;;;18.81;73.25;102546.63;5024460;28;20091;-70
2022/08/10 07:23:54;;;;;;;17.63;11.05;;;;;;;18.96;73.85;102552.53;5025546;28;20026;-70
2022/08/10 07:26:21;;;;;;;20.85;12.10;;;;;;;19.15;71.64;102550.41;5025047;28;20044;-70
2022/08/10 07:28:49;;;;;;;19.05;11.73;;;;;;;19.30;72.27;102553.50;5027908;28;20029;-70
2022/08/10 07:31:17;;;;;;;19.63;12.13;;;;;;;19.40;70.49;102555.66;5044302;28;20065;-70
2022/08/10 07:33:43;;;;;;;19.05;11.55;;;;;;;19.49;70.21;102551.38;5044876;28;20025;-69
2022/08/10 07:36:09;;;;;;;18.40;11.23;;;;;;;19.57;69.97;102552.94;5043528;28;20119;-70
2022/08/10 07:38:36;;;;;;;17.70;11.55;;;;;;;19.64;69.94;102548.06;5044690;28;20112;-70
2022/08/10 07:41:04;;;;;;;17.63;10.93;;;;;;;19.86;69.61;102551.81;5043987;28;20091;-70
2022/08/10 07:43:36;;;;;;;18.50;10.75;;;;;;;19.98;68.23;102548.97;5044957;28;20112;-70
2022/08/10 07:46:03;;;;;;;18.83;11.20;;;;;;;20.06;67.82;102548.53;5034389;28;20038;-69
2022/08/10 07:48:34;;;;;;;17.65;10.68;;;;;;;20.15;68.13;102543.38;5024947;28;20091;-69
2022/08/10 07:51:01;;;;;;;17.65;10.43;;;;;;;20.20;67.17;102543.47;5023676;28;20102;-69
2022/08/10 07:53:31;;;;;;;18.40;9.60;;;;;;;20.27;67.87;102546.06;5024531;28;20245;-70
2022/08/10 07:55:58;;;;;;;17.60;9.27;;;;;;;20.35;67.43;102546.50;5024329;28;20104;-70
2022/08/10 07:58:29;;;;;;;20.13;10.00;;;;;;;20.46;66.75;102542.78;5024438;28;20075;-70
2022/08/10 08:00:57;;;;;;;15.85;9.75;;;;;;;20.53;64.68;102545.44;5023808;28;20057;-70
2022/08/10 08:03:27;;;;;;;16.77;8.90;;;;;;;20.67;65.03;102546.72;5041824;28;20029;-70
2022/08/10 08:05:53;;;;;;;15.45;7.70;;;;;;;20.68;63.58;102547.56;5025378;28;20019;-71
2022/08/10 08:08:20;;;;;;;15.65;8.40;;;;;;;20.76;61.73;102546.28;5044421;28;20033;-70
2022/08/10 08:10:47;;;;;;;15.98;7.53;;;;;;;20.84;63.67;102548.66;5044491;28;20079;-70
2022/08/10 08:13:13;;;;;;;16.27;7.63;;;;;;;20.94;63.71;102543.22;5043794;28;20037;-69
2022/08/10 08:15:41;;;;;;;17.85;8.02;;;;;;;21.07;62.53;102542.78;5043773;28;20379;-70
2022/08/10 08:18:07;;;;;;;16.48;7.78;;;;;;;21.18;62.51;102544.59;5044171;28;20025;-69
2022/08/10 08:20:34;;;;;;;14.93;8.45;;;;;;;21.29;61.50;102544.72;5041887;28;20109;-70
2022/08/10 08:23:00;;;;;;;18.67;8.57;;;;;;;21.42;60.13;102544.38;5042794;28;20021;-70
2022/08/10 08:25:25;;;;;;;14.13;7.65;;;;;;;21.42;62.17;102545.22;5044050;28;20033;-70
2022/08/10 08:27:54;;;;;;;13.30;7.70;;;;;;;21.54;60.88;102542.25;5043782;28;20498;-69
2022/08/10 08:30:21;;;;;;;12.95;7.13;;;;;;;21.61;59.72;102539.25;5043975;28;20112;-70
2022/08/10 08:32:47;;;;;;;14.75;7.38;;;;;;;21.77;59.13;102546.69;5044349;28;20029;-70
2022/08/10 08:35:16;;;;;;;14.63;7.43;;;;;;;21.88;59.16;102544.84;5042967;28;20039;-69
2022/08/10 08:37:45;;;;;;;12.43;6.75;;;;;;;21.96;58.03;102544.34;5025144;28;20361;-70
2022/08/10 08:40:13;;;;;;;15.02;6.50;;;;;;;22.05;56.34;102539.97;5023854;28;20025;-70
2022/08/10 08:42:59;;;;;;;10.75;6.45;;;;;;;22.14;57.30;102540.31;5024098;28;20022;-69
2022/08/10 08:45:53;;;;;;;12.50;6.95;;;;;;;22.33;57.61;102535.16;5024019;28;20033;-70
2022/08/10 08:48:18;;;;;;;16.25;6.43;;;;;;;22.49;55.39;102534.16;5023654;28;20037;-70
2022/08/10 08:50:58;;;;;;;12.53;6.83;;;;;;;22.58;56.35;102534.50;5022574;28;20029;-69
2022/08/10 08:53:37;;;;;;;9.95;6.22;;;;;;;22.74;55.88;102537.09;5028435;28;20025;-69
2022/08/10 08:56:15;;;;;;;13.50;5.90;;;;;;;22.92;56.31;102537.81;5043435;28;20618;-69
2022/08/10 08:58:49;;;;;;;12.23;5.65;;;;;;;23.14;55.22;102532.84;5043186;28;20040;-70
2022/08/10 09:01:46;;;;;;;10.07;5.78;;;;;;;23.35;54.17;102528.13;5042957;28;20048;-70
2022/08/10 09:04:29;;;;;;;15.73;6.43;;;;;;;23.46;52.88;102537.41;5043095;28;20025;-69
2022/08/10 09:07:10;;;;;;;12.38;6.65;;;;;;;23.62;52.71;102535.47;5041918;28;20079;-70
2022/08/10 09:10:03;;;;;;;10.60;5.70;;;;;;;23.74;52.13;102545.38;5042959;28;20160;-70
2022/08/10 09:12:53;;;;;;;11.00;5.30;;;;;;;23.88;52.79;102536.41;5041757;28;20031;-69
2022/08/10 09:15:40;;;;;;;10.30;6.20;;;;;;;24.03;52.63;102528.84;5043506;28;20120;-69
2022/08/10 09:18:32;;;;;;;8.65;5.13;;;;;;;24.32;52.13;102531.03;5023509;28;20376;-70
2022/08/10 09:21:05;;;;;;;11.60;5.50;;;;;;;24.61;49.61;102528.50;5021295;28;20025;-70
2022/08/10 09:23:46;;;;;;;10.45;5.32;;;;;;;24.82;48.27;102527.31;5023245;28;20038;-70
2022/08/10 09:26:20;;;;;;;8.95;5.22;;;;;;;25.02;47.80;102520.75;5022541;28;20030;-70
2022/08/10 09:28:53;;;;;;;11.45;4.88;;;;;;;26.08;44.82;102517.59;5029824;28;20036;-70
2022/08/10 09:31:22;;;;;;;10.18;5.35;;;;;;;27.66;41.37;102512.88;5042541;28;20028;-70
2022/08/10 09:34:10;;;;;;;9.93;5.68;;;;;;;28.36;39.93;102521.34;5043100;28;20025;-70
2022/08/10 09:36:59;;;;;;;11.02;5.25;;;;;;;29.27;38.07;102514.97;5041260;28;20082;-69
2022/08/10 09:39:47;;;;;;;10.57;4.60;;;;;;;31.10;34.36;102517.84;5042996;28;20178;-70
2022/08/10 09:42:27;;;;;;;11.48;4.60;;;;;;;32.69;33.36;102513.38;5042286;28;20027;-68
2022/08/10 09:45:00;;;;;;;8.10;4.45;;;;;;;34.34;29.10;102504.41;5040798;28;20162;-67
2022/08/10 09:47:55;;;;;;;8.57;3.90;;;;;;;33.88;30.17;102512.09;5023155;28;20025;-67
2022/08/10 09:50:27;;;;;;;7.43;4.10;;;;;;;33.25;29.91;102506.41;5021871;28;20025;-68
2022/08/10 09:53:12;;;;;;;8.40;3.88;;;;;;;34.23;29.91;102504.03;5022394;28;20447;-66
2022/08/10 09:56:14;;;;;;;10.73;3.95;;;;;;;35.44;29.41;102498.72;5022376;28;20028;-66
2022/08/10 09:58:59;;;;;;;8.52;4.13;;;;;;;34.78;26.82;102494.16;5022485;28;20037;-67
2022/08/10 10:01:42;;;;;;;7.78;3.63;;;;;;;34.99;27.72;102494.03;5022587;28;20056;-68
2022/08/10 10:04:32;;;;;;;6.90;3.40;;;;;;;35.44;26.51;102489.31;5021335;28;20080;-68
2022/08/10 10:07:00;;;;;;;8.90;3.70;;;;;;;35.91;25.91;102489.47;5037966;28;20032;-68
2022/08/10 10:09:50;;;;;;;8.77;3.50;;;;;;;36.49;25.74;102484.16;5036129;28;20562;-68
2022/08/10 10:12:41;;;;;;;9.93;3.60;;;;;;;36.79;25.07;102483.66;5022624;28;20026;-69
2022/08/10 10:15:21;;;;;;;11.48;3.75;;;;;;;36.94;24.13;102477.09;5022278;28;20033;-68
2022/08/10 10:18:01;;;;;;;11.90;3.85;;;;;;;37.22;25.53;102476.94;5022319;28;20034;-69
2022/08/10 10:20:57;;;;;;;7.88;3.30;;;;;;;37.06;23.03;102470.44;5020033;28;20444;-68
2022/08/10 10:23:32;;;;;;;6.88;3.28;;;;;;;36.56;23.79;102472.06;5022546;28;20026;-69
2022/08/10 10:26:18;;;;;;;6.07;3.20;;;;;;;36.57;24.97;102460.25;5022033;28;20034;-69
2022/08/10 10:29:00;;;;;;;6.93;3.38;;;;;;;36.40;23.25;102463.47;5022182;28;20046;-68
2022/08/10 10:31:31;;;;;;;7.53;3.35;;;;;;;35.36;24.94;102456.81;5021706;28;20484;-69
2022/08/10 10:34:17;;;;;;;8.48;3.38;;;;;;;35.87;24.48;102455.06;5021570;28;20388;-69
2022/08/10 10:36:44;;;;;;;8.48;3.17;;;;;;;36.49;23.55;102460.41;5006431;28;20123;-69
2022/08/10 10:39:16;;;;;;;6.00;3.30;;;;;;;36.93;24.14;102454.56;5022276;28;20369;-69
2022/08/10 10:42:32;;;;;;;6.63;3.40;;;;;;;36.88;23.74;102450.75;5022660;28;20029;-68
2022/08/10 10:45:25;;;;;;;7.25;3.15;;;;;;;37.88;24.10;102447.25;4997941;28;20044;-68
2022/08/10 10:48:31;;;;;;;6.20;2.70;;;;;;;39.27;23.26;102439.28;5045929;28;20033;-68
2022/08/10 10:51:14;;;;;;;5.25;3.10;;;;;;;39.54;21.02;102438.00;5044433;28;20628;-68
2022/08/10 10:53:58;;;;;;;5.95;3.03;;;;;;;39.26;20.39;102437.66;5045926;28;20032;-68
2022/08/10 10:56:35;;;;;;;9.10;3.50;;;;;;;39.56;21.52;102432.69;5045916;28;20047;-68
2022/08/10 10:59:29;;;;;;;7.97;2.70;;;;;;;40.27;20.43;102423.19;5045690;28;20059;-68
2022/08/10 11:02:06;;;;;;;8.25;2.88;;;;;;;38.65;21.12;102416.63;5042003;28;20733;-68
2022/08/10 11:04:45;;;;;;;7.20;3.03;;;;;;;36.69;22.62;102422.06;5045783;28;20035;-68
2022/08/10 11:07:23;;;;;;;7.50;3.03;;;;;;;36.87;23.74;102419.63;5043370;28;20083;-68
2022/08/10 11:09:55;;;;;;;6.35;3.15;;;;;;;36.59;23.78;102419.78;5046037;28;20033;-68
2022/08/10 11:12:38;;;;;;;6.45;3.10;;;;;;;35.68;24.95;102402.63;5045115;28;20056;-68
2022/08/10 11:15:27;;;;;;;7.07;3.30;;;;;;;33.64;26.83;102403.69;5045234;28;20037;-68
2022/08/10 11:18:17;;;;;;;7.68;3.22;;;;;;;32.77;28.01;102402.38;5044337;28;20424;-68
2022/08/10 11:20:50;;;;;;;6.40;3.42;;;;;;;32.39;27.60;102405.28;5023582;28;20388;-68
2022/08/10 11:23:24;;;;;;;7.50;3.58;;;;;;;32.31;29.13;102405.28;5026058;28;20036;-68
2022/08/10 11:26:01;;;;;;;7.70;3.25;;;;;;;32.12;28.11;102402.84;5025714;28;20117;-68
2022/08/10 11:28:39;;;;;;;7.85;3.50;;;;;;;32.10;29.11;102408.06;5025236;28;20086;-68
2022/08/10 11:31:42;;;;;;;6.50;3.13;;;;;;;32.17;28.25;102408.34;5024943;28;20030;-68
2022/08/10 11:34:31;;;;;;;7.10;4.20;;;;;;;32.32;29.20;102404.13;5003357;28;20042;-68
2022/08/10 11:37:14;;;;;;;6.07;3.33;;;;;;;32.42;28.03;102401.75;5031000;28;20025;-68
2022/08/10 11:39:46;;;;;;;7.15;3.45;;;;;;;32.35;28.60;102400.59;5044639;28;20037;-68
2022/08/10 11:42:19;;;;;;;6.20;3.28;;;;;;;32.30;28.01;102404.47;5044701;28;20029;-68
2022/08/10 11:45:09;;;;;;;7.35;3.42;;;;;;;32.29;28.48;102406.47;5045379;28;20025;-68
2022/08/10 11:47:46;;;;;;;5.35;2.80;;;;;;;32.23;28.64;102395.63;5024937;28;20116;-68